sensor_id;sensor_type;location;lat;lon;timestamp;P1;P2;P0
77515;PMS5003;66627;29.424;-98.496;2023-08-21T00:01:08;20;14;
77515;PMS5003;66627;29.424;-98.496;2023-08-21T00:03:33;14;13;
77515;PMS5003;66627;29.424;-98.496;2023-08-21T00:05:58;15;15;
77515;PMS5003;66627;29.424;-98.496;2023-08-21T00:08:24;14;14;
77515;PMS5003;66627;29.424;-98.496;2023-08-21T00:10:50;14;14;
77515;PMS5003;66627;29.424;-98.496;2023-08-21T00:13:16;16;16;
77515;PMS5003;66627;29.424;-98.496;2023-08-21T00:15:41;14;14;
77515;PMS5003;66627;29.424;-98.496;2023-08-21T00:18:06;16;14;
77515;PMS5003;66627;29.424;-98.496;2023-08-21T00:20:32;15;14;
77515;PMS5003;66627;29.424;-98.496;2023-08-21T00:22:57;14;14;
77515;PMS5003;66627;29.424;-98.496;2023-08-21T00:25:23;19;19;
77515;PMS5003;66627;29.424;-98.496;2023-08-21T00:27:48;15;14;
77515;PMS5003;66627;29.424;-98.496;2023-08-21T00:30:14;14;14;
77515;PMS5003;66627;29.424;-98.496;2023-08-21T00:32:39;14;12;
77515;PMS5003;66627;29.424;-98.496;2023-08-21T00:35:05;16;16;
77515;PMS5003;66627;29.424;-98.496;2023-08-21T00:37:30;17;15;
77515;PMS5003;66627;29.424;-98.496;2023-08-21T00:40:02;14;14;
77515;PMS5003;66627;29.424;-98.496;2023-08-21T00:42:22;16;13;
77515;PMS5003;66627;29.424;-98.496;2023-08-21T00:44:48;19;19;
77515;PMS5003;66627;29.424;-98.496;2023-08-21T00:47:13;18;15;
77515;PMS5003;66627;29.424;-98.496;2023-08-21T00:49:39;14;14;
77515;PMS5003;66627;29.424;-98.496;2023-08-21T00:52:04;16;16;
77515;PMS5003;66627;29.424;-98.496;2023-08-21T00:54:29;18;14;
77515;PMS5003;66627;29.424;-98.496;2023-08-21T00:56:55;15;15;
77515;PMS5003;66627;29.424;-98.496;2023-08-21T00:59:21;18;14;
77515;PMS5003;66627;29.424;-98.496;2023-08-21T01:01:46;14;13;
77515;PMS5003;66627;29.424;-98.496;2023-08-21T01:04:12;16;14;
77515;PMS5003;66627;29.424;-98.496;2023-08-21T01:06:37;14;14;
77515;PMS5003;66627;29.424;-98.496;2023-08-21T01:09:04;14;14;
77515;PMS5003;66627;29.424;-98.496;2023-08-21T01:11:31;17;15;
77515;PMS5003;66627;29.424;-98.496;2023-08-21T01:13:55;16;14;
77515;PMS5003;66627;29.424;-98.496;2023-08-21T01:16:20;17;17;
77515;PMS5003;66627;29.424;-98.496;2023-08-21T01:18:45;15;14;
77515;PMS5003;66627;29.424;-98.496;2023-08-21T01:21:10;17;14;
77515;PMS5003;66627;29.424;-98.496;2023-08-21T01:23:36;15;15;
77515;PMS5003;66627;29.424;-98.496;2023-08-21T01:26:01;18;16;
77515;PMS5003;66627;29.424;-98.496;2023-08-21T01:28:27;14;14;
77515;PMS5003;66627;29.424;-98.496;2023-08-21T01:33:17;17;16;
77515;PMS5003;66627;29.424;-98.496;2023-08-21T01:35:43;25;21;
77515;PMS5003;66627;29.424;-98.496;2023-08-21T01:38:08;16;16;
77515;PMS5003;66627;29.424;-98.496;2023-08-21T01:40:34;16;15;
77515;PMS5003;66627;29.424;-98.496;2023-08-21T01:43:00;14;14;
77515;PMS5003;66627;29.424;-98.496;2023-08-21T01:45:26;16;16;
77515;PMS5003;66627;29.424;-98.496;2023-08-21T01:47:51;17;17;
77515;PMS5003;66627;29.424;-98.496;2023-08-21T01:50:18;16;14;
77515;PMS5003;66627;29.424;-98.496;2023-08-21T01:52:42;19;17;
77515;PMS5003;66627;29.424;-98.496;2023-08-21T01:55:09;18;17;
77515;PMS5003;66627;29.424;-98.496;2023-08-21T01:57:34;16;14;
77515;PMS5003;66627;29.424;-98.496;2023-08-21T02:00:00;14;14;
77515;PMS5003;66627;29.424;-98.496;2023-08-21T02:02:26;15;15;
77515;PMS5003;66627;29.424;-98.496;2023-08-21T02:04:51;17;15;
77515;PMS5003;66627;29.424;-98.496;2023-08-21T02:07:17;17;17;
77515;PMS5003;66627;29.424;-98.496;2023-08-21T02:09:42;16;15;
77515;PMS5003;66627;29.424;-98.496;2023-08-21T02:12:08;14;13;
77515;PMS5003;66627;29.424;-98.496;2023-08-21T02:14:33;14;14;
77515;PMS5003;66627;29.424;-98.496;2023-08-21T02:16:59;17;17;
77515;PMS5003;66627;29.424;-98.496;2023-08-21T02:19:25;15;13;
77515;PMS5003;66627;29.424;-98.496;2023-08-21T02:21:51;13;13;
77515;PMS5003;66627;29.424;-98.496;2023-08-21T02:24:16;17;14;
77515;PMS5003;66627;29.424;-98.496;2023-08-21T02:26:41;17;15;
77515;PMS5003;66627;29.424;-98.496;2023-08-21T02:29:06;17;15;
77515;PMS5003;66627;29.424;-98.496;2023-08-21T02:31:32;17;17;
77515;PMS5003;66627;29.424;-98.496;2023-08-21T02:33:57;17;14;
77515;PMS5003;66627;29.424;-98.496;2023-08-21T02:36:22;18;18;
77515;PMS5003;66627;29.424;-98.496;2023-08-21T02:38:49;17;17;
77515;PMS5003;66627;29.424;-98.496;2023-08-21T02:41:13;17;17;
77515;PMS5003;66627;29.424;-98.496;2023-08-21T02:43:39;14;13;
77515;PMS5003;66627;29.424;-98.496;2023-08-21T02:46:05;19;15;
77515;PMS5003;66627;29.424;-98.496;2023-08-21T02:48:30;14;14;
77515;PMS5003;66627;29.424;-98.496;2023-08-21T02:50:56;18;15;
77515;PMS5003;66627;29.424;-98.496;2023-08-21T02:53:21;15;14;
77515;PMS5003;66627;29.424;-98.496;2023-08-21T02:55:47;15;14;
77515;PMS5003;66627;29.424;-98.496;2023-08-21T02:58:12;18;15;
77515;PMS5003;66627;29.424;-98.496;2023-08-21T03:00:37;14;14;
77515;PMS5003;66627;29.424;-98.496;2023-08-21T03:03:03;15;15;
77515;PMS5003;66627;29.424;-98.496;2023-08-21T03:05:28;18;15;
77515;PMS5003;66627;29.424;-98.496;2023-08-21T03:07:53;17;16;
77515;PMS5003;66627;29.424;-98.496;2023-08-21T03:10:20;18;17;
77515;PMS5003;66627;29.424;-98.496;2023-08-21T03:12:44;18;16;
77515;PMS5003;66627;29.424;-98.496;2023-08-21T03:15:09;17;14;
77515;PMS5003;66627;29.424;-98.496;2023-08-21T03:17:35;16;15;
77515;PMS5003;66627;29.424;-98.496;2023-08-21T03:20:00;13;13;
77515;PMS5003;66627;29.424;-98.496;2023-08-21T03:22:26;15;15;
77515;PMS5003;66627;29.424;-98.496;2023-08-21T03:24:51;14;14;
77515;PMS5003;66627;29.424;-98.496;2023-08-21T03:27:16;15;13;
77515;PMS5003;66627;29.424;-98.496;2023-08-21T03:29:42;16;16;
77515;PMS5003;66627;29.424;-98.496;2023-08-21T03:32:07;13;13;
77515;PMS5003;66627;29.424;-98.496;2023-08-21T03:34:33;14;13;
77515;PMS5003;66627;29.424;-98.496;2023-08-21T03:36:58;15;13;
77515;PMS5003;66627;29.424;-98.496;2023-08-21T03:39:23;15;12;
77515;PMS5003;66627;29.424;-98.496;2023-08-21T03:41:49;13;13;
77515;PMS5003;66627;29.424;-98.496;2023-08-21T03:44:14;13;13;
77515;PMS5003;66627;29.424;-98.496;2023-08-21T03:46:44;15;14;
77515;PMS5003;66627;29.424;-98.496;2023-08-21T03:49:05;18;16;
77515;PMS5003;66627;29.424;-98.496;2023-08-21T03:51:31;16;16;
77515;PMS5003;66627;29.424;-98.496;2023-08-21T03:53:56;16;16;
77515;PMS5003;66627;29.424;-98.496;2023-08-21T03:56:26;15;14;
77515;PMS5003;66627;29.424;-98.496;2023-08-21T03:58:47;19;18;
77515;PMS5003;66627;29.424;-98.496;2023-08-21T04:01:13;17;14;
77515;PMS5003;66627;29.424;-98.496;2023-08-21T04:03:38;11;11;
77515;PMS5003;66627;29.424;-98.496;2023-08-21T04:06:03;14;12;
77515;PMS5003;66627;29.424;-98.496;2023-08-21T04:08:28;13;12;
77515;PMS5003;66627;29.424;-98.496;2023-08-21T04:10:54;13;12;
77515;PMS5003;66627;29.424;-98.496;2023-08-21T04:13:20;12;11;
77515;PMS5003;66627;29.424;-98.496;2023-08-21T04:15:46;14;13;
77515;PMS5003;66627;29.424;-98.496;2023-08-21T04:18:11;15;14;
77515;PMS5003;66627;29.424;-98.496;2023-08-21T04:20:36;12;11;
77515;PMS5003;66627;29.424;-98.496;2023-08-21T04:23:01;11;11;
77515;PMS5003;66627;29.424;-98.496;2023-08-21T04:25:26;10;8;
77515;PMS5003;66627;29.424;-98.496;2023-08-21T04:27:52;10;10;
77515;PMS5003;66627;29.424;-98.496;2023-08-21T04:32:43;9;9;
77515;PMS5003;66627;29.424;-98.496;2023-08-21T04:35:08;10;10;
77515;PMS5003;66627;29.424;-98.496;2023-08-21T04:37:33;8;7;
77515;PMS5003;66627;29.424;-98.496;2023-08-21T04:39:58;9;9;
77515;PMS5003;66627;29.424;-98.496;2023-08-21T04:42:24;8;7;
77515;PMS5003;66627;29.424;-98.496;2023-08-21T04:44:49;9;8;
77515;PMS5003;66627;29.424;-98.496;2023-08-21T04:47:20;11;7;
77515;PMS5003;66627;29.424;-98.496;2023-08-21T04:49:39;6;6;
77515;PMS5003;66627;29.424;-98.496;2023-08-21T04:52:04;6;6;
77515;PMS5003;66627;29.424;-98.496;2023-08-21T04:54:29;7;7;
77515;PMS5003;66627;29.424;-98.496;2023-08-21T04:56:54;8;8;
77515;PMS5003;66627;29.424;-98.496;2023-08-21T04:59:20;7;6;
77515;PMS5003;66627;29.424;-98.496;2023-08-21T05:01:45;8;8;
77515;PMS5003;66627;29.424;-98.496;2023-08-21T05:04:10;9;9;
77515;PMS5003;66627;29.424;-98.496;2023-08-21T05:06:35;6;6;
77515;PMS5003;66627;29.424;-98.496;2023-08-21T05:09:00;8;8;
77515;PMS5003;66627;29.424;-98.496;2023-08-21T05:11:25;6;6;
77515;PMS5003;66627;29.424;-98.496;2023-08-21T05:13:52;9;8;
77515;PMS5003;66627;29.424;-98.496;2023-08-21T05:16:16;12;10;
77515;PMS5003;66627;29.424;-98.496;2023-08-21T05:18:42;9;9;
77515;PMS5003;66627;29.424;-98.496;2023-08-21T05:21:07;6;6;
77515;PMS5003;66627;29.424;-98.496;2023-08-21T05:23:32;9;8;
77515;PMS5003;66627;29.424;-98.496;2023-08-21T05:25:57;6;6;
77515;PMS5003;66627;29.424;-98.496;2023-08-21T05:28:22;5;5;
77515;PMS5003;66627;29.424;-98.496;2023-08-21T05:30:48;8;6;
77515;PMS5003;66627;29.424;-98.496;2023-08-21T05:33:14;9;8;
77515;PMS5003;66627;29.424;-98.496;2023-08-21T05:35:39;5;5;
77515;PMS5003;66627;29.424;-98.496;2023-08-21T05:38:05;6;5;
77515;PMS5003;66627;29.424;-98.496;2023-08-21T05:40:30;6;6;
77515;PMS5003;66627;29.424;-98.496;2023-08-21T05:42:56;8;8;
77515;PMS5003;66627;29.424;-98.496;2023-08-21T05:45:21;4;4;
77515;PMS5003;66627;29.424;-98.496;2023-08-21T05:47:47;6;6;
77515;PMS5003;66627;29.424;-98.496;2023-08-21T05:50:12;7;7;
77515;PMS5003;66627;29.424;-98.496;2023-08-21T05:52:38;11;8;
77515;PMS5003;66627;29.424;-98.496;2023-08-21T05:55:03;4;4;
77515;PMS5003;66627;29.424;-98.496;2023-08-21T05:57:28;6;6;
77515;PMS5003;66627;29.424;-98.496;2023-08-21T05:59:54;6;6;
77515;PMS5003;66627;29.424;-98.496;2023-08-21T06:02:19;6;6;
77515;PMS5003;66627;29.424;-98.496;2023-08-21T06:04:45;6;6;
77515;PMS5003;66627;29.424;-98.496;2023-08-21T06:07:09;7;7;
77515;PMS5003;66627;29.424;-98.496;2023-08-21T06:09:34;5;5;
77515;PMS5003;66627;29.424;-98.496;2023-08-21T06:11:59;10;9;
77515;PMS5003;66627;29.424;-98.496;2023-08-21T06:14:25;8;6;
77515;PMS5003;66627;29.424;-98.496;2023-08-21T06:16:50;5;5;
77515;PMS5003;66627;29.424;-98.496;2023-08-21T06:19:15;6;6;
77515;PMS5003;66627;29.424;-98.496;2023-08-21T06:21:40;8;5;
77515;PMS5003;66627;29.424;-98.496;2023-08-21T06:24:05;3;3;
77515;PMS5003;66627;29.424;-98.496;2023-08-21T06:26:30;5;5;
77515;PMS5003;66627;29.424;-98.496;2023-08-21T06:28:56;7;5;
77515;PMS5003;66627;29.424;-98.496;2023-08-21T06:31:21;7;7;
77515;PMS5003;66627;29.424;-98.496;2023-08-21T06:33:46;6;5;
77515;PMS5003;66627;29.424;-98.496;2023-08-21T06:36:11;6;6;
77515;PMS5003;66627;29.424;-98.496;2023-08-21T06:38:37;9;6;
77515;PMS5003;66627;29.424;-98.496;2023-08-21T06:41:02;8;7;
77515;PMS5003;66627;29.424;-98.496;2023-08-21T06:43:28;8;8;
77515;PMS5003;66627;29.424;-98.496;2023-08-21T06:45:53;4;4;
77515;PMS5003;66627;29.424;-98.496;2023-08-21T06:48:18;6;6;
77515;PMS5003;66627;29.424;-98.496;2023-08-21T06:50:44;7;4;
77515;PMS5003;66627;29.424;-98.496;2023-08-21T06:53:09;5;5;
77515;PMS5003;66627;29.424;-98.496;2023-08-21T06:55:34;7;6;
77515;PMS5003;66627;29.424;-98.496;2023-08-21T06:57:59;5;5;
77515;PMS5003;66627;29.424;-98.496;2023-08-21T07:00:24;6;6;
77515;PMS5003;66627;29.424;-98.496;2023-08-21T07:05:15;7;6;
77515;PMS5003;66627;29.424;-98.496;2023-08-21T07:07:40;6;6;
77515;PMS5003;66627;29.424;-98.496;2023-08-21T07:10:05;7;7;
77515;PMS5003;66627;29.424;-98.496;2023-08-21T07:12:31;6;4;
77515;PMS5003;66627;29.424;-98.496;2023-08-21T07:14:56;7;7;
77515;PMS5003;66627;29.424;-98.496;2023-08-21T07:17:21;7;5;
77515;PMS5003;66627;29.424;-98.496;2023-08-21T07:19:46;8;6;
77515;PMS5003;66627;29.424;-98.496;2023-08-21T07:22:11;5;5;
77515;PMS5003;66627;29.424;-98.496;2023-08-21T07:24:36;5;5;
77515;PMS5003;66627;29.424;-98.496;2023-08-21T07:27:02;7;7;
77515;PMS5003;66627;29.424;-98.496;2023-08-21T07:29:27;6;6;
77515;PMS5003;66627;29.424;-98.496;2023-08-21T07:31:52;5;4;
77515;PMS5003;66627;29.424;-98.496;2023-08-21T07:34:17;8;7;
77515;PMS5003;66627;29.424;-98.496;2023-08-21T07:36:42;7;5;
77515;PMS5003;66627;29.424;-98.496;2023-08-21T07:39:07;6;6;
77515;PMS5003;66627;29.424;-98.496;2023-08-21T07:41:32;7;6;
77515;PMS5003;66627;29.424;-98.496;2023-08-21T07:43:58;5;5;
77515;PMS5003;66627;29.424;-98.496;2023-08-21T07:46:23;9;6;
77515;PMS5003;66627;29.424;-98.496;2023-08-21T07:51:13;7;7;
77515;PMS5003;66627;29.424;-98.496;2023-08-21T07:53:38;6;6;
77515;PMS5003;66627;29.424;-98.496;2023-08-21T07:56:04;3;3;
77515;PMS5003;66627;29.424;-98.496;2023-08-21T07:58:28;8;5;
77515;PMS5003;66627;29.424;-98.496;2023-08-21T08:00:54;6;6;
77515;PMS5003;66627;29.424;-98.496;2023-08-21T08:03:19;6;6;
77515;PMS5003;66627;29.424;-98.496;2023-08-21T08:05:44;5;5;
77515;PMS5003;66627;29.424;-98.496;2023-08-21T08:08:09;5;5;
77515;PMS5003;66627;29.424;-98.496;2023-08-21T08:10:36;3;3;
77515;PMS5003;66627;29.424;-98.496;2023-08-21T08:12:59;7;7;
77515;PMS5003;66627;29.424;-98.496;2023-08-21T08:15:25;6;6;
77515;PMS5003;66627;29.424;-98.496;2023-08-21T08:17:50;5;5;
77515;PMS5003;66627;29.424;-98.496;2023-08-21T08:20:15;7;5;
77515;PMS5003;66627;29.424;-98.496;2023-08-21T08:22:41;7;5;
77515;PMS5003;66627;29.424;-98.496;2023-08-21T08:25:06;5;3;
77515;PMS5003;66627;29.424;-98.496;2023-08-21T08:27:31;6;6;
77515;PMS5003;66627;29.424;-98.496;2023-08-21T08:29:56;3;3;
77515;PMS5003;66627;29.424;-98.496;2023-08-21T08:32:21;4;4;
77515;PMS5003;66627;29.424;-98.496;2023-08-21T08:34:46;6;6;
77515;PMS5003;66627;29.424;-98.496;2023-08-21T08:37:11;3;3;
77515;PMS5003;66627;29.424;-98.496;2023-08-21T08:39:37;5;5;
77515;PMS5003;66627;29.424;-98.496;2023-08-21T08:42:03;4;4;
77515;PMS5003;66627;29.424;-98.496;2023-08-21T08:44:27;6;5;
77515;PMS5003;66627;29.424;-98.496;2023-08-21T08:46:53;4;4;
77515;PMS5003;66627;29.424;-98.496;2023-08-21T08:49:18;5;4;
77515;PMS5003;66627;29.424;-98.496;2023-08-21T08:51:43;6;3;
77515;PMS5003;66627;29.424;-98.496;2023-08-21T08:54:09;5;5;
77515;PMS5003;66627;29.424;-98.496;2023-08-21T08:56:34;6;5;
77515;PMS5003;66627;29.424;-98.496;2023-08-21T08:58:59;5;5;
77515;PMS5003;66627;29.424;-98.496;2023-08-21T09:01:24;5;5;
77515;PMS5003;66627;29.424;-98.496;2023-08-21T09:03:49;4;4;
77515;PMS5003;66627;29.424;-98.496;2023-08-21T09:06:14;4;4;
77515;PMS5003;66627;29.424;-98.496;2023-08-21T09:08:40;4;4;
77515;PMS5003;66627;29.424;-98.496;2023-08-21T09:11:05;6;5;
77515;PMS5003;66627;29.424;-98.496;2023-08-21T09:13:30;4;2;
77515;PMS5003;66627;29.424;-98.496;2023-08-21T09:15:55;3;3;
77515;PMS5003;66627;29.424;-98.496;2023-08-21T09:18:20;5;3;
77515;PMS5003;66627;29.424;-98.496;2023-08-21T09:20:45;7;5;
77515;PMS5003;66627;29.424;-98.496;2023-08-21T09:23:13;3;3;
77515;PMS5003;66627;29.424;-98.496;2023-08-21T09:25:36;7;6;
77515;PMS5003;66627;29.424;-98.496;2023-08-21T09:28:03;4;4;
77515;PMS5003;66627;29.424;-98.496;2023-08-21T09:30:27;4;2;
77515;PMS5003;66627;29.424;-98.496;2023-08-21T09:32:52;5;5;
77515;PMS5003;66627;29.424;-98.496;2023-08-21T09:35:17;6;6;
77515;PMS5003;66627;29.424;-98.496;2023-08-21T09:37:42;4;4;
77515;PMS5003;66627;29.424;-98.496;2023-08-21T09:40:07;4;4;
77515;PMS5003;66627;29.424;-98.496;2023-08-21T09:42:32;7;5;
77515;PMS5003;66627;29.424;-98.496;2023-08-21T09:44:57;6;3;
77515;PMS5003;66627;29.424;-98.496;2023-08-21T09:47:23;4;4;
77515;PMS5003;66627;29.424;-98.496;2023-08-21T09:49:48;4;4;
77515;PMS5003;66627;29.424;-98.496;2023-08-21T09:52:13;4;4;
77515;PMS5003;66627;29.424;-98.496;2023-08-21T09:54:38;6;6;
77515;PMS5003;66627;29.424;-98.496;2023-08-21T09:57:04;4;4;
77515;PMS5003;66627;29.424;-98.496;2023-08-21T09:59:28;6;6;
77515;PMS5003;66627;29.424;-98.496;2023-08-21T10:01:54;6;6;
77515;PMS5003;66627;29.424;-98.496;2023-08-21T10:04:19;7;6;
77515;PMS5003;66627;29.424;-98.496;2023-08-21T10:06:44;4;3;
77515;PMS5003;66627;29.424;-98.496;2023-08-21T10:09:09;7;7;
77515;PMS5003;66627;29.424;-98.496;2023-08-21T10:11:34;6;6;
77515;PMS5003;66627;29.424;-98.496;2023-08-21T10:13:59;6;6;
77515;PMS5003;66627;29.424;-98.496;2023-08-21T10:16:24;6;6;
77515;PMS5003;66627;29.424;-98.496;2023-08-21T10:18:49;5;5;
77515;PMS5003;66627;29.424;-98.496;2023-08-21T10:21:16;3;3;
77515;PMS5003;66627;29.424;-98.496;2023-08-21T10:23:41;6;6;
77515;PMS5003;66627;29.424;-98.496;2023-08-21T10:26:07;6;5;
77515;PMS5003;66627;29.424;-98.496;2023-08-21T10:30:57;6;4;
77515;PMS5003;66627;29.424;-98.496;2023-08-21T10:35:47;3;2;
77515;PMS5003;66627;29.424;-98.496;2023-08-21T10:38:13;6;6;
77515;PMS5003;66627;29.424;-98.496;2023-08-21T10:40:38;4;4;
77515;PMS5003;66627;29.424;-98.496;2023-08-21T10:43:03;6;5;
77515;PMS5003;66627;29.424;-98.496;2023-08-21T10:45:29;5;5;
77515;PMS5003;66627;29.424;-98.496;2023-08-21T10:47:55;5;4;
77515;PMS5003;66627;29.424;-98.496;2023-08-21T10:50:20;5;5;
77515;PMS5003;66627;29.424;-98.496;2023-08-21T10:52:45;7;5;
77515;PMS5003;66627;29.424;-98.496;2023-08-21T10:55:10;5;5;
77515;PMS5003;66627;29.424;-98.496;2023-08-21T10:57:36;6;5;
77515;PMS5003;66627;29.424;-98.496;2023-08-21T11:00:02;7;7;
77515;PMS5003;66627;29.424;-98.496;2023-08-21T11:02:27;3;3;
77515;PMS5003;66627;29.424;-98.496;2023-08-21T11:04:52;3;3;
77515;PMS5003;66627;29.424;-98.496;2023-08-21T11:07:16;8;6;
77515;PMS5003;66627;29.424;-98.496;2023-08-21T11:09:41;9;7;
77515;PMS5003;66627;29.424;-98.496;2023-08-21T11:12:08;3;3;
77515;PMS5003;66627;29.424;-98.496;2023-08-21T11:14:32;4;4;
77515;PMS5003;66627;29.424;-98.496;2023-08-21T11:16:57;5;5;
77515;PMS5003;66627;29.424;-98.496;2023-08-21T11:19:22;4;4;
77515;PMS5003;66627;29.424;-98.496;2023-08-21T11:21:50;3;3;
77515;PMS5003;66627;29.424;-98.496;2023-08-21T11:24:13;4;2;
77515;PMS5003;66627;29.424;-98.496;2023-08-21T11:26:38;6;5;
77515;PMS5003;66627;29.424;-98.496;2023-08-21T11:29:03;3;3;
77515;PMS5003;66627;29.424;-98.496;2023-08-21T11:31:28;4;4;
77515;PMS5003;66627;29.424;-98.496;2023-08-21T11:33:53;7;6;
77515;PMS5003;66627;29.424;-98.496;2023-08-21T11:36:18;4;4;
77515;PMS5003;66627;29.424;-98.496;2023-08-21T11:38:43;6;5;
77515;PMS5003;66627;29.424;-98.496;2023-08-21T11:41:09;5;5;
77515;PMS5003;66627;29.424;-98.496;2023-08-21T11:43:35;5;5;
77515;PMS5003;66627;29.424;-98.496;2023-08-21T11:46:00;5;5;
77515;PMS5003;66627;29.424;-98.496;2023-08-21T11:48:24;5;5;
77515;PMS5003;66627;29.424;-98.496;2023-08-21T11:50:50;5;5;
77515;PMS5003;66627;29.424;-98.496;2023-08-21T11:55:41;6;6;
77515;PMS5003;66627;29.424;-98.496;2023-08-21T11:58:06;4;4;
77515;PMS5003;66627;29.424;-98.496;2023-08-21T12:00:31;6;6;
77515;PMS5003;66627;29.424;-98.496;2023-08-21T12:02:58;6;5;
77515;PMS5003;66627;29.424;-98.496;2023-08-21T12:05:21;8;6;
77515;PMS5003;66627;29.424;-98.496;2023-08-21T12:07:46;9;7;
77515;PMS5003;66627;29.424;-98.496;2023-08-21T12:10:11;8;6;
77515;PMS5003;66627;29.424;-98.496;2023-08-21T12:12:37;5;4;
77515;PMS5003;66627;29.424;-98.496;2023-08-21T12:15:02;7;7;
77515;PMS5003;66627;29.424;-98.496;2023-08-21T12:17:27;5;5;
77515;PMS5003;66627;29.424;-98.496;2023-08-21T12:19:53;5;4;
77515;PMS5003;66627;29.424;-98.496;2023-08-21T12:22:17;4;4;
77515;PMS5003;66627;29.424;-98.496;2023-08-21T12:24:42;5;5;
77515;PMS5003;66627;29.424;-98.496;2023-08-21T12:27:07;9;6;
77515;PMS5003;66627;29.424;-98.496;2023-08-21T12:29:33;7;7;
77515;PMS5003;66627;29.424;-98.496;2023-08-21T12:31:58;4;4;
77515;PMS5003;66627;29.424;-98.496;2023-08-21T12:34:23;9;6;
77515;PMS5003;66627;29.424;-98.496;2023-08-21T12:36:49;8;5;
77515;PMS5003;66627;29.424;-98.496;2023-08-21T12:39:13;7;7;
77515;PMS5003;66627;29.424;-98.496;2023-08-21T12:41:38;9;6;
77515;PMS5003;66627;29.424;-98.496;2023-08-21T12:44:04;8;5;
77515;PMS5003;66627;29.424;-98.496;2023-08-21T12:46:29;5;5;
77515;PMS5003;66627;29.424;-98.496;2023-08-21T12:48:55;8;7;
77515;PMS5003;66627;29.424;-98.496;2023-08-21T12:51:21;5;5;
77515;PMS5003;66627;29.424;-98.496;2023-08-21T12:53:46;8;5;
77515;PMS5003;66627;29.424;-98.496;2023-08-21T12:56:10;9;6;
77515;PMS5003;66627;29.424;-98.496;2023-08-21T12:58:36;5;5;
77515;PMS5003;66627;29.424;-98.496;2023-08-21T13:01:01;6;4;
77515;PMS5003;66627;29.424;-98.496;2023-08-21T13:03:26;7;6;
77515;PMS5003;66627;29.424;-98.496;2023-08-21T13:05:51;2;2;
77515;PMS5003;66627;29.424;-98.496;2023-08-21T13:08:17;7;6;
77515;PMS5003;66627;29.424;-98.496;2023-08-21T13:10:42;7;6;
77515;PMS5003;66627;29.424;-98.496;2023-08-21T13:13:08;4;4;
77515;PMS5003;66627;29.424;-98.496;2023-08-21T13:15:34;6;5;
77515;PMS5003;66627;29.424;-98.496;2023-08-21T13:17:58;6;6;
77515;PMS5003;66627;29.424;-98.496;2023-08-21T13:20:24;5;5;
77515;PMS5003;66627;29.424;-98.496;2023-08-21T13:22:50;7;6;
77515;PMS5003;66627;29.424;-98.496;2023-08-21T13:25:15;6;6;
77515;PMS5003;66627;29.424;-98.496;2023-08-21T13:27:40;8;7;
77515;PMS5003;66627;29.424;-98.496;2023-08-21T13:30:06;5;5;
77515;PMS5003;66627;29.424;-98.496;2023-08-21T13:32:30;7;7;
77515;PMS5003;66627;29.424;-98.496;2023-08-21T13:37:22;6;6;
77515;PMS5003;66627;29.424;-98.496;2023-08-21T13:39:46;5;5;
77515;PMS5003;66627;29.424;-98.496;2023-08-21T13:42:12;3;3;
77515;PMS5003;66627;29.424;-98.496;2023-08-21T13:44:37;8;7;
77515;PMS5003;66627;29.424;-98.496;2023-08-21T13:47:03;3;3;
77515;PMS5003;66627;29.424;-98.496;2023-08-21T13:49:28;5;5;
77515;PMS5003;66627;29.424;-98.496;2023-08-21T13:51:53;5;4;
77515;PMS5003;66627;29.424;-98.496;2023-08-21T13:54:18;3;3;
77515;PMS5003;66627;29.424;-98.496;2023-08-21T13:56:44;8;3;
77515;PMS5003;66627;29.424;-98.496;2023-08-21T13:59:09;7;5;
77515;PMS5003;66627;29.424;-98.496;2023-08-21T14:01:34;7;7;
77515;PMS5003;66627;29.424;-98.496;2023-08-21T14:03:59;7;6;
77515;PMS5003;66627;29.424;-98.496;2023-08-21T14:06:24;5;5;
77515;PMS5003;66627;29.424;-98.496;2023-08-21T14:08:50;4;4;
77515;PMS5003;66627;29.424;-98.496;2023-08-21T14:11:15;4;4;
77515;PMS5003;66627;29.424;-98.496;2023-08-21T14:13:40;6;4;
77515;PMS5003;66627;29.424;-98.496;2023-08-21T14:16:06;6;6;
77515;PMS5003;66627;29.424;-98.496;2023-08-21T14:18:31;4;2;
77515;PMS5003;66627;29.424;-98.496;2023-08-21T14:20:56;7;6;
77515;PMS5003;66627;29.424;-98.496;2023-08-21T14:23:22;5;5;
77515;PMS5003;66627;29.424;-98.496;2023-08-21T14:25:47;5;4;
77515;PMS5003;66627;29.424;-98.496;2023-08-21T14:28:12;7;6;
77515;PMS5003;66627;29.424;-98.496;2023-08-21T14:30:37;6;6;
77515;PMS5003;66627;29.424;-98.496;2023-08-21T14:33:02;6;6;
77515;PMS5003;66627;29.424;-98.496;2023-08-21T14:35:27;6;4;
77515;PMS5003;66627;29.424;-98.496;2023-08-21T14:37:52;5;5;
77515;PMS5003;66627;29.424;-98.496;2023-08-21T14:40:18;5;4;
77515;PMS5003;66627;29.424;-98.496;2023-08-21T14:42:43;7;6;
77515;PMS5003;66627;29.424;-98.496;2023-08-21T14:45:09;5;5;
77515;PMS5003;66627;29.424;-98.496;2023-08-21T14:47:35;5;5;
77515;PMS5003;66627;29.424;-98.496;2023-08-21T14:50:00;4;4;
77515;PMS5003;66627;29.424;-98.496;2023-08-21T14:52:25;9;9;
77515;PMS5003;66627;29.424;-98.496;2023-08-21T14:54:50;7;6;
77515;PMS5003;66627;29.424;-98.496;2023-08-21T14:57:15;6;6;
77515;PMS5003;66627;29.424;-98.496;2023-08-21T14:59:41;5;5;
77515;PMS5003;66627;29.424;-98.496;2023-08-21T15:02:06;10;7;
77515;PMS5003;66627;29.424;-98.496;2023-08-21T15:04:31;7;6;
77515;PMS5003;66627;29.424;-98.496;2023-08-21T15:06:57;7;7;
77515;PMS5003;66627;29.424;-98.496;2023-08-21T15:09:22;8;7;
77515;PMS5003;66627;29.424;-98.496;2023-08-21T15:11:47;7;7;
77515;PMS5003;66627;29.424;-98.496;2023-08-21T15:14:13;7;7;
77515;PMS5003;66627;29.424;-98.496;2023-08-21T15:16:39;10;8;
77515;PMS5003;66627;29.424;-98.496;2023-08-21T15:19:04;9;9;
77515;PMS5003;66627;29.424;-98.496;2023-08-21T15:21:30;9;7;
77515;PMS5003;66627;29.424;-98.496;2023-08-21T15:23:55;12;8;
77515;PMS5003;66627;29.424;-98.496;2023-08-21T15:26:20;7;7;
77515;PMS5003;66627;29.424;-98.496;2023-08-21T15:28:45;13;12;
77515;PMS5003;66627;29.424;-98.496;2023-08-21T15:31:10;11;10;
77515;PMS5003;66627;29.424;-98.496;2023-08-21T15:33:35;11;11;
77515;PMS5003;66627;29.424;-98.496;2023-08-21T15:36:01;10;10;
77515;PMS5003;66627;29.424;-98.496;2023-08-21T15:38:26;14;13;
77515;PMS5003;66627;29.424;-98.496;2023-08-21T15:40:51;11;11;
77515;PMS5003;66627;29.424;-98.496;2023-08-21T15:43:16;14;14;
77515;PMS5003;66627;29.424;-98.496;2023-08-21T15:45:42;13;13;
77515;PMS5003;66627;29.424;-98.496;2023-08-21T15:48:07;16;16;
77515;PMS5003;66627;29.424;-98.496;2023-08-21T15:50:32;18;18;
77515;PMS5003;66627;29.424;-98.496;2023-08-21T15:52:57;17;17;
77515;PMS5003;66627;29.424;-98.496;2023-08-21T15:55:23;20;20;
77515;PMS5003;66627;29.424;-98.496;2023-08-21T15:57:49;22;21;
77515;PMS5003;66627;29.424;-98.496;2023-08-21T16:00:14;18;16;
77515;PMS5003;66627;29.424;-98.496;2023-08-21T16:02:40;16;14;
77515;PMS5003;66627;29.424;-98.496;2023-08-21T16:05:06;17;17;
77515;PMS5003;66627;29.424;-98.496;2023-08-21T16:07:32;15;15;
77515;PMS5003;66627;29.424;-98.496;2023-08-21T16:09:57;16;16;
77515;PMS5003;66627;29.424;-98.496;2023-08-21T16:12:22;14;14;